sensor_id;sensor_type;location;lat;lon;timestamp;temperature;humidity
21001;DHT22;10658;50.920;12.238;2024-03-17T00:01:44;2.60;99.90
21001;DHT22;10658;50.920;12.238;2024-03-17T00:05:45;2.50;99.90
21001;DHT22;10658;50.920;12.238;2024-03-17T00:09:46;2.50;99.90
21001;DHT22;10658;50.920;12.238;2024-03-17T00:13:47;2.40;99.90
21001;DHT22;10658;50.920;12.238;2024-03-17T00:17:48;2.10;99.90
21001;DHT22;10658;50.920;12.238;2024-03-17T00:21:49;2.00;99.90
21001;DHT22;10658;50.920;12.238;2024-03-17T00:25:55;1.90;99.90
21001;DHT22;10658;50.920;12.238;2024-03-17T00:29:55;1.90;99.90
21001;DHT22;10658;50.920;12.238;2024-03-17T00:33:57;2.00;99.90
21001;DHT22;10658;50.920;12.238;2024-03-17T00:37:58;2.00;99.90
21001;DHT22;10658;50.920;12.238;2024-03-17T00:41:59;1.90;99.90
21001;DHT22;10658;50.920;12.238;2024-03-17T00:45:59;1.70;99.90
21001;DHT22;10658;50.920;12.238;2024-03-17T00:50:00;1.60;99.90
21001;DHT22;10658;50.920;12.238;2024-03-17T00:54:01;1.70;99.90
21001;DHT22;10658;50.920;12.238;2024-03-17T00:58:02;1.70;99.90
21001;DHT22;10658;50.920;12.238;2024-03-17T01:02:03;1.60;99.90
21001;DHT22;10658;50.920;12.238;2024-03-17T01:06:04;1.70;99.90
21001;DHT22;10658;50.920;12.238;2024-03-17T01:10:05;1.60;99.90
21001;DHT22;10658;50.920;12.238;2024-03-17T01:14:08;1.60;99.90
21001;DHT22;10658;50.920;12.238;2024-03-17T01:18:09;1.60;99.90
21001;DHT22;10658;50.920;12.238;2024-03-17T01:22:10;1.60;99.90
21001;DHT22;10658;50.920;12.238;2024-03-17T01:26:11;1.50;99.90
21001;DHT22;10658;50.920;12.238;2024-03-17T01:30:12;1.50;99.90
21001;DHT22;10658;50.920;12.238;2024-03-17T01:34:13;1.60;99.90
21001;DHT22;10658;50.920;12.238;2024-03-17T01:38:14;1.50;99.90
21001;DHT22;10658;50.920;12.238;2024-03-17T01:42:15;1.60;99.90
21001;DHT22;10658;50.920;12.238;2024-03-17T01:46:17;1.50;99.90
21001;DHT22;10658;50.920;12.238;2024-03-17T01:50:18;1.40;99.90
21001;DHT22;10658;50.920;12.238;2024-03-17T01:54:21;1.30;99.90
21001;DHT22;10658;50.920;12.238;2024-03-17T01:58:25;1.30;99.90
21001;DHT22;10658;50.920;12.238;2024-03-17T02:02:26;1.30;99.90
21001;DHT22;10658;50.920;12.238;2024-03-17T02:06:27;1.20;99.90
21001;DHT22;10658;50.920;12.238;2024-03-17T02:10:27;1.20;99.90
21001;DHT22;10658;50.920;12.238;2024-03-17T02:14:28;1.10;99.90
21001;DHT22;10658;50.920;12.238;2024-03-17T02:18:29;1.00;99.90
21001;DHT22;10658;50.920;12.238;2024-03-17T02:22:30;0.80;99.90
21001;DHT22;10658;50.920;12.238;2024-03-17T02:26:31;0.60;99.90
21001;DHT22;10658;50.920;12.238;2024-03-17T02:30:31;0.60;99.90
21001;DHT22;10658;50.920;12.238;2024-03-17T02:34:36;0.70;99.90
21001;DHT22;10658;50.920;12.238;2024-03-17T02:38:37;0.60;99.90
21001;DHT22;10658;50.920;12.238;2024-03-17T02:42:56;0.60;99.90
21001;DHT22;10658;50.920;12.238;2024-03-17T02:47:00;0.60;99.90
21001;DHT22;10658;50.920;12.238;2024-03-17T02:51:02;0.80;99.90
21001;DHT22;10658;50.920;12.238;2024-03-17T02:55:03;0.80;99.90
21001;DHT22;10658;50.920;12.238;2024-03-17T02:59:04;0.80;99.90
21001;DHT22;10658;50.920;12.238;2024-03-17T03:03:05;0.80;99.90
21001;DHT22;10658;50.920;12.238;2024-03-17T03:07:05;0.90;99.90
21001;DHT22;10658;50.920;12.238;2024-03-17T03:11:08;1.00;99.90
21001;DHT22;10658;50.920;12.238;2024-03-17T03:15:12;1.00;99.90
21001;DHT22;10658;50.920;12.238;2024-03-17T03:19:13;0.80;99.90
21001;DHT22;10658;50.920;12.238;2024-03-17T03:23:14;0.70;99.90
21001;DHT22;10658;50.920;12.238;2024-03-17T03:27:15;0.60;99.90
21001;DHT22;10658;50.920;12.238;2024-03-17T03:31:16;0.50;99.90
21001;DHT22;10658;50.920;12.238;2024-03-17T03:35:18;0.50;99.90
21001;DHT22;10658;50.920;12.238;2024-03-17T03:39:18;0.50;99.90
21001;DHT22;10658;50.920;12.238;2024-03-17T03:43:20;0.50;99.90
21001;DHT22;10658;50.920;12.238;2024-03-17T03:47:21;0.50;99.90
21001;DHT22;10658;50.920;12.238;2024-03-17T03:51:21;0.40;99.90
21001;DHT22;10658;50.920;12.238;2024-03-17T03:55:22;0.40;99.90
21001;DHT22;10658;50.920;12.238;2024-03-17T03:59:24;0.30;99.90
21001;DHT22;10658;50.920;12.238;2024-03-17T04:03:25;0.20;99.90
21001;DHT22;10658;50.920;12.238;2024-03-17T04:07:26;0.20;99.90
21001;DHT22;10658;50.920;12.238;2024-03-17T04:11:27;0.30;99.90
21001;DHT22;10658;50.920;12.238;2024-03-17T04:15:28;0.40;99.90
21001;DHT22;10658;50.920;12.238;2024-03-17T04:19:29;0.50;99.90
21001;DHT22;10658;50.920;12.238;2024-03-17T04:23:30;0.70;99.90
21001;DHT22;10658;50.920;12.238;2024-03-17T04:27:34;0.80;99.90
21001;DHT22;10658;50.920;12.238;2024-03-17T04:31:34;0.90;99.90
21001;DHT22;10658;50.920;12.238;2024-03-17T04:35:39;0.80;99.90
21001;DHT22;10658;50.920;12.238;2024-03-17T04:39:41;0.70;99.90
21001;DHT22;10658;50.920;12.238;2024-03-17T04:43:45;0.80;99.90
21001;DHT22;10658;50.920;12.238;2024-03-17T04:47:46;0.90;99.90
21001;DHT22;10658;50.920;12.238;2024-03-17T04:51:47;0.90;99.90
21001;DHT22;10658;50.920;12.238;2024-03-17T04:55:48;1.00;99.90
21001;DHT22;10658;50.920;12.238;2024-03-17T04:59:57;1.00;99.90
21001;DHT22;10658;50.920;12.238;2024-03-17T05:03:58;1.00;99.90
21001;DHT22;10658;50.920;12.238;2024-03-17T05:07:59;0.90;99.90
21001;DHT22;10658;50.920;12.238;2024-03-17T05:12:00;0.80;99.90
21001;DHT22;10658;50.920;12.238;2024-03-17T05:16:02;0.80;99.90
21001;DHT22;10658;50.920;12.238;2024-03-17T05:20:04;0.80;99.90
21001;DHT22;10658;50.920;12.238;2024-03-17T05:24:06;0.90;99.90
21001;DHT22;10658;50.920;12.238;2024-03-17T05:28:06;0.90;99.90
21001;DHT22;10658;50.920;12.238;2024-03-17T05:32:07;0.90;99.90
21001;DHT22;10658;50.920;12.238;2024-03-17T05:36:08;1.00;99.90
21001;DHT22;10658;50.920;12.238;2024-03-17T05:40:10;1.10;99.90
21001;DHT22;10658;50.920;12.238;2024-03-17T05:44:12;1.10;99.90
21001;DHT22;10658;50.920;12.238;2024-03-17T05:48:13;1.00;99.90
21001;DHT22;10658;50.920;12.238;2024-03-17T05:52:14;1.10;99.90
21001;DHT22;10658;50.920;12.238;2024-03-17T05:56:15;1.00;99.90
21001;DHT22;10658;50.920;12.238;2024-03-17T06:00:19;1.00;99.90
21001;DHT22;10658;50.920;12.238;2024-03-17T06:04:19;1.10;99.90
21001;DHT22;10658;50.920;12.238;2024-03-17T06:08:20;1.20;99.90
21001;DHT22;10658;50.920;12.238;2024-03-17T06:12:22;1.20;99.90
21001;DHT22;10658;50.920;12.238;2024-03-17T06:16:22;1.30;99.90
21001;DHT22;10658;50.920;12.238;2024-03-17T06:20:24;1.40;99.90
21001;DHT22;10658;50.920;12.238;2024-03-17T06:24:28;1.40;99.90
21001;DHT22;10658;50.920;12.238;2024-03-17T06:28:29;1.40;99.90
21001;DHT22;10658;50.920;12.238;2024-03-17T06:32:31;1.50;99.90
21001;DHT22;10658;50.920;12.238;2024-03-17T06:36:33;1.60;99.90
21001;DHT22;10658;50.920;12.238;2024-03-17T06:40:34;1.70;99.90
21001;DHT22;10658;50.920;12.238;2024-03-17T06:44:34;1.80;99.90
21001;DHT22;10658;50.920;12.238;2024-03-17T06:48:36;2.00;99.90
21001;DHT22;10658;50.920;12.238;2024-03-17T06:52:37;2.20;99.90
21001;DHT22;10658;50.920;12.238;2024-03-17T06:56:37;2.30;99.90
21001;DHT22;10658;50.920;12.238;2024-03-17T07:00:38;2.50;99.90
21001;DHT22;10658;50.920;12.238;2024-03-17T07:04:39;2.50;99.90
21001;DHT22;10658;50.920;12.238;2024-03-17T07:08:39;2.60;99.90
21001;DHT22;10658;50.920;12.238;2024-03-17T07:12:41;2.80;99.90
21001;DHT22;10658;50.920;12.238;2024-03-17T07:16:42;2.90;99.90
21001;DHT22;10658;50.920;12.238;2024-03-17T07:20:43;3.10;99.90
21001;DHT22;10658;50.920;12.238;2024-03-17T07:24:44;3.20;99.90
21001;DHT22;10658;50.920;12.238;2024-03-17T07:28:45;3.50;99.90
21001;DHT22;10658;50.920;12.238;2024-03-17T07:32:46;3.60;99.90
21001;DHT22;10658;50.920;12.238;2024-03-17T07:36:46;3.90;99.90
21001;DHT22;10658;50.920;12.238;2024-03-17T07:41:04;4.10;99.90
21001;DHT22;10658;50.920;12.238;2024-03-17T07:45:07;4.20;99.90
21001;DHT22;10658;50.920;12.238;2024-03-17T07:49:11;4.30;99.90
21001;DHT22;10658;50.920;12.238;2024-03-17T07:53:12;4.50;99.90
21001;DHT22;10658;50.920;12.238;2024-03-17T07:57:13;4.60;99.90
21001;DHT22;10658;50.920;12.238;2024-03-17T08:01:16;4.80;99.90
21001;DHT22;10658;50.920;12.238;2024-03-17T08:05:17;5.10;99.90
21001;DHT22;10658;50.920;12.238;2024-03-17T08:09:18;5.40;99.90
21001;DHT22;10658;50.920;12.238;2024-03-17T08:13:20;5.50;99.90
21001;DHT22;10658;50.920;12.238;2024-03-17T08:17:21;5.70;99.90
21001;DHT22;10658;50.920;12.238;2024-03-17T08:21:22;5.90;99.90
21001;DHT22;10658;50.920;12.238;2024-03-17T08:25:23;6.00;99.90
21001;DHT22;10658;50.920;12.238;2024-03-17T08:29:24;6.20;99.90
21001;DHT22;10658;50.920;12.238;2024-03-17T08:33:26;6.40;99.90
21001;DHT22;10658;50.920;12.238;2024-03-17T08:37:27;6.70;99.90
21001;DHT22;10658;50.920;12.238;2024-03-17T08:41:28;7.50;99.90
21001;DHT22;10658;50.920;12.238;2024-03-17T08:45:31;7.90;99.90
21001;DHT22;10658;50.920;12.238;2024-03-17T08:49:31;8.50;99.90
21001;DHT22;10658;50.920;12.238;2024-03-17T08:53:33;8.80;99.90
21001;DHT22;10658;50.920;12.238;2024-03-17T08:57:34;9.20;99.90
21001;DHT22;10658;50.920;12.238;2024-03-17T09:01:35;9.30;99.90
21001;DHT22;10658;50.920;12.238;2024-03-17T09:05:36;9.70;99.90
21001;DHT22;10658;50.920;12.238;2024-03-17T09:09:37;9.80;99.90
21001;DHT22;10658;50.920;12.238;2024-03-17T09:13:37;10.30;99.90
21001;DHT22;10658;50.920;12.238;2024-03-17T09:17:38;10.60;99.90
21001;DHT22;10658;50.920;12.238;2024-03-17T09:21:39;10.90;99.90
21001;DHT22;10658;50.920;12.238;2024-03-17T09:25:40;11.50;99.90
21001;DHT22;10658;50.920;12.238;2024-03-17T09:29:41;11.60;99.90
21001;DHT22;10658;50.920;12.238;2024-03-17T09:33:42;11.90;99.90
21001;DHT22;10658;50.920;12.238;2024-03-17T09:37:42;11.70;99.90
21001;DHT22;10658;50.920;12.238;2024-03-17T09:41:43;10.90;99.90
21001;DHT22;10658;50.920;12.238;2024-03-17T09:45:46;10.00;99.90
21001;DHT22;10658;50.920;12.238;2024-03-17T09:49:48;10.00;99.90
21001;DHT22;10658;50.920;12.238;2024-03-17T09:53:52;10.70;99.90
21001;DHT22;10658;50.920;12.238;2024-03-17T09:57:52;10.20;99.90
21001;DHT22;10658;50.920;12.238;2024-03-17T10:01:53;9.50;99.90
21001;DHT22;10658;50.920;12.238;2024-03-17T10:05:59;9.40;99.90
21001;DHT22;10658;50.920;12.238;2024-03-17T10:10:13;9.60;99.90
21001;DHT22;10658;50.920;12.238;2024-03-17T10:14:16;9.70;99.90
21001;DHT22;10658;50.920;12.238;2024-03-17T10:18:22;10.30;99.90
21001;DHT22;10658;50.920;12.238;2024-03-17T10:22:26;10.50;99.90
21001;DHT22;10658;50.920;12.238;2024-03-17T10:26:26;10.30;99.90
21001;DHT22;10658;50.920;12.238;2024-03-17T10:30:28;10.20;99.90
21001;DHT22;10658;50.920;12.238;2024-03-17T10:34:31;9.80;99.90
21001;DHT22;10658;50.920;12.238;2024-03-17T10:38:38;10.20;99.90
21001;DHT22;10658;50.920;12.238;2024-03-17T10:42:51;10.90;99.90
21001;DHT22;10658;50.920;12.238;2024-03-17T10:46:54;10.70;99.90
21001;DHT22;10658;50.920;12.238;2024-03-17T10:50:59;11.20;99.90
21001;DHT22;10658;50.920;12.238;2024-03-17T10:55:07;11.50;99.90
21001;DHT22;10658;50.920;12.238;2024-03-17T10:59:10;12.00;99.90
21001;DHT22;10658;50.920;12.238;2024-03-17T11:03:11;12.60;99.90
21001;DHT22;10658;50.920;12.238;2024-03-17T11:07:17;13.10;99.90
21001;DHT22;10658;50.920;12.238;2024-03-17T11:11:35;13.20;99.90
21001;DHT22;10658;50.920;12.238;2024-03-17T11:15:38;12.60;99.90
21001;DHT22;10658;50.920;12.238;2024-03-17T11:19:40;12.10;99.90
21001;DHT22;10658;50.920;12.238;2024-03-17T11:23:42;11.90;99.90
21001;DHT22;10658;50.920;12.238;2024-03-17T11:27:43;11.30;99.90
21001;DHT22;10658;50.920;12.238;2024-03-17T11:31:45;11.30;99.90
21001;DHT22;10658;50.920;12.238;2024-03-17T11:35:47;11.30;99.90
21001;DHT22;10658;50.920;12.238;2024-03-17T11:39:48;12.00;99.90
21001;DHT22;10658;50.920;12.238;2024-03-17T11:48:14;11.50;99.90
21001;DHT22;10658;50.920;12.238;2024-03-17T11:52:16;12.20;99.90
21001;DHT22;10658;50.920;12.238;2024-03-17T11:56:23;12.20;99.90
21001;DHT22;10658;50.920;12.238;2024-03-17T12:00:24;12.70;99.90
21001;DHT22;10658;50.920;12.238;2024-03-17T12:04:28;13.00;99.90
21001;DHT22;10658;50.920;12.238;2024-03-17T12:08:32;12.60;99.90
21001;DHT22;10658;50.920;12.238;2024-03-17T12:12:37;12.30;99.90
21001;DHT22;10658;50.920;12.238;2024-03-17T12:16:47;12.20;99.90
21001;DHT22;10658;50.920;12.238;2024-03-17T12:20:49;11.70;99.90
21001;DHT22;10658;50.920;12.238;2024-03-17T12:24:55;11.50;99.90
21001;DHT22;10658;50.920;12.238;2024-03-17T12:28:56;11.60;99.90
21001;DHT22;10658;50.920;12.238;2024-03-17T12:32:57;12.10;99.90
21001;DHT22;10658;50.920;12.238;2024-03-17T12:36:59;12.90;99.90
21001;DHT22;10658;50.920;12.238;2024-03-17T12:41:00;12.60;99.90
21001;DHT22;10658;50.920;12.238;2024-03-17T12:45:01;12.90;99.90
21001;DHT22;10658;50.920;12.238;2024-03-17T12:49:02;13.10;99.90
21001;DHT22;10658;50.920;12.238;2024-03-17T12:53:02;12.90;99.90
21001;DHT22;10658;50.920;12.238;2024-03-17T12:57:05;12.60;99.90
21001;DHT22;10658;50.920;12.238;2024-03-17T13:01:24;13.00;99.90
21001;DHT22;10658;50.920;12.238;2024-03-17T13:05:26;13.30;99.90
21001;DHT22;10658;50.920;12.238;2024-03-17T13:09:30;12.90;99.90
21001;DHT22;10658;50.920;12.238;2024-03-17T13:13:31;12.70;99.90
21001;DHT22;10658;50.920;12.238;2024-03-17T13:17:32;12.60;99.90
21001;DHT22;10658;50.920;12.238;2024-03-17T13:21:34;12.40;99.90
21001;DHT22;10658;50.920;12.238;2024-03-17T13:25:35;12.10;99.90
21001;DHT22;10658;50.920;12.238;2024-03-17T13:29:37;11.80;99.90
21001;DHT22;10658;50.920;12.238;2024-03-17T13:33:38;11.50;99.90
21001;DHT22;10658;50.920;12.238;2024-03-17T13:37:39;11.10;99.90
21001;DHT22;10658;50.920;12.238;2024-03-17T13:41:41;10.80;99.90
21001;DHT22;10658;50.920;12.238;2024-03-17T13:45:42;10.70;99.90
21001;DHT22;10658;50.920;12.238;2024-03-17T13:49:44;10.60;99.90
21001;DHT22;10658;50.920;12.238;2024-03-17T13:53:45;10.50;99.90
21001;DHT22;10658;50.920;12.238;2024-03-17T13:57:49;10.50;99.90
21001;DHT22;10658;50.920;12.238;2024-03-17T14:01:50;10.40;99.90
21001;DHT22;10658;50.920;12.238;2024-03-17T14:05:51;10.40;99.90
21001;DHT22;10658;50.920;12.238;2024-03-17T14:09:52;10.50;99.90
21001;DHT22;10658;50.920;12.238;2024-03-17T14:13:53;10.60;99.90
21001;DHT22;10658;50.920;12.238;2024-03-17T14:17:54;10.50;99.90
21001;DHT22;10658;50.920;12.238;2024-03-17T14:21:55;10.30;99.90
21001;DHT22;10658;50.920;12.238;2024-03-17T14:25:56;10.30;99.90
21001;DHT22;10658;50.920;12.238;2024-03-17T14:29:57;10.20;99.90
21001;DHT22;10658;50.920;12.238;2024-03-17T14:33:59;10.30;99.90
21001;DHT22;10658;50.920;12.238;2024-03-17T14:37:59;10.40;99.90
21001;DHT22;10658;50.920;12.238;2024-03-17T14:42:00;10.40;99.90
21001;DHT22;10658;50.920;12.238;2024-03-17T14:46:01;10.50;99.90
21001;DHT22;10658;50.920;12.238;2024-03-17T14:50:02;10.70;99.90
21001;DHT22;10658;50.920;12.238;2024-03-17T14:54:03;10.90;99.90
21001;DHT22;10658;50.920;12.238;2024-03-17T14:58:04;10.90;99.90
21001;DHT22;10658;50.920;12.238;2024-03-17T15:02:07;10.90;99.90
21001;DHT22;10658;50.920;12.238;2024-03-17T15:06:09;10.90;99.90
21001;DHT22;10658;50.920;12.238;2024-03-17T15:10:11;11.00;99.90
21001;DHT22;10658;50.920;12.238;2024-03-17T15:14:13;11.00;99.90
21001;DHT22;10658;50.920;12.238;2024-03-17T15:18:14;10.90;99.90
21001;DHT22;10658;50.920;12.238;2024-03-17T15:22:14;10.70;99.90
21001;DHT22;10658;50.920;12.238;2024-03-17T15:26:15;10.60;99.90
21001;DHT22;10658;50.920;12.238;2024-03-17T15:30:22;10.60;99.90
21001;DHT22;10658;50.920;12.238;2024-03-17T15:40:26;10.20;99.90
21001;DHT22;10658;50.920;12.238;2024-03-17T15:44:40;10.20;99.90
21001;DHT22;10658;50.920;12.238;2024-03-17T15:49:29;10.10;99.90
21001;DHT22;10658;50.920;12.238;2024-03-17T15:54:04;10.00;99.90
21001;DHT22;10658;50.920;12.238;2024-03-17T15:58:28;9.80;99.90
21001;DHT22;10658;50.920;12.238;2024-03-17T16:03:16;9.80;99.90
21001;DHT22;10658;50.920;12.238;2024-03-17T16:07:38;9.60;99.90
21001;DHT22;10658;50.920;12.238;2024-03-17T16:16:14;9.30;99.90
21001;DHT22;10658;50.920;12.238;2024-03-17T16:20:56;9.00;99.90
21001;DHT22;10658;50.920;12.238;2024-03-17T16:24:57;8.80;99.90
21001;DHT22;10658;50.920;12.238;2024-03-17T16:28:59;8.60;99.90
21001;DHT22;10658;50.920;12.238;2024-03-17T16:33:00;8.40;99.90
21001;DHT22;10658;50.920;12.238;2024-03-17T16:37:02;8.20;99.90
21001;DHT22;10658;50.920;12.238;2024-03-17T16:41:03;8.00;99.90
21001;DHT22;10658;50.920;12.238;2024-03-17T16:45:06;7.90;99.90
21001;DHT22;10658;50.920;12.238;2024-03-17T16:49:07;7.80;99.90
21001;DHT22;10658;50.920;12.238;2024-03-17T16:53:09;7.60;99.90
21001;DHT22;10658;50.920;12.238;2024-03-17T16:57:10;7.50;99.90
21001;DHT22;10658;50.920;12.238;2024-03-17T17:01:14;7.40;99.90
21001;DHT22;10658;50.920;12.238;2024-03-17T17:05:16;7.30;99.90
21001;DHT22;10658;50.920;12.238;2024-03-17T17:09:17;7.20;99.90
21001;DHT22;10658;50.920;12.238;2024-03-17T17:13:17;7.10;99.90
21001;DHT22;10658;50.920;12.238;2024-03-17T17:17:18;7.10;99.90
21001;DHT22;10658;50.920;12.238;2024-03-17T17:21:23;7.00;99.90
21001;DHT22;10658;50.920;12.238;2024-03-17T17:25:25;6.90;99.90
21001;DHT22;10658;50.920;12.238;2024-03-17T17:29:26;6.60;99.90
21001;DHT22;10658;50.920;12.238;2024-03-17T17:33:38;6.40;99.90
21001;DHT22;10658;50.920;12.238;2024-03-17T17:37:56;6.30;99.90
21001;DHT22;10658;50.920;12.238;2024-03-17T17:42:18;6.20;99.90
21001;DHT22;10658;50.920;12.238;2024-03-17T17:46:42;6.10;99.90
21001;DHT22;10658;50.920;12.238;2024-03-17T17:50:43;6.10;99.90
21001;DHT22;10658;50.920;12.238;2024-03-17T17:54:44;6.00;99.90
21001;DHT22;10658;50.920;12.238;2024-03-17T17:58:46;5.90;99.90
21001;DHT22;10658;50.920;12.238;2024-03-17T18:02:48;5.90;99.90
21001;DHT22;10658;50.920;12.238;2024-03-17T18:06:49;5.90;99.90
21001;DHT22;10658;50.920;12.238;2024-03-17T18:10:50;5.80;99.90
21001;DHT22;10658;50.920;12.238;2024-03-17T18:14:51;5.80;99.90
21001;DHT22;10658;50.920;12.238;2024-03-17T18:18:52;5.80;99.90
21001;DHT22;10658;50.920;12.238;2024-03-17T18:22:53;5.80;99.90
21001;DHT22;10658;50.920;12.238;2024-03-17T18:26:54;5.80;99.90
21001;DHT22;10658;50.920;12.238;2024-03-17T18:30:54;5.60;99.90
21001;DHT22;10658;50.920;12.238;2024-03-17T18:34:55;5.60;99.90
21001;DHT22;10658;50.920;12.238;2024-03-17T18:38:58;5.60;99.90
21001;DHT22;10658;50.920;12.238;2024-03-17T18:42:59;5.40;99.90
21001;DHT22;10658;50.920;12.238;2024-03-17T18:47:04;5.40;99.90
21001;DHT22;10658;50.920;12.238;2024-03-17T18:51:05;5.40;99.90
21001;DHT22;10658;50.920;12.238;2024-03-17T18:55:06;5.20;99.90
21001;DHT22;10658;50.920;12.238;2024-03-17T18:59:07;5.20;99.90
21001;DHT22;10658;50.920;12.238;2024-03-17T19:03:08;5.00;99.90
21001;DHT22;10658;50.920;12.238;2024-03-17T19:07:08;5.00;99.90
21001;DHT22;10658;50.920;12.238;2024-03-17T19:11:10;5.00;99.90
21001;DHT22;10658;50.920;12.238;2024-03-17T19:15:14;4.90;99.90
21001;DHT22;10658;50.920;12.238;2024-03-17T19:19:14;4.80;99.90
21001;DHT22;10658;50.920;12.238;2024-03-17T19:23:15;4.60;99.90
21001;DHT22;10658;50.920;12.238;2024-03-17T19:27:16;4.60;99.90
21001;DHT22;10658;50.920;12.238;2024-03-17T19:31:16;4.50;99.90
21001;DHT22;10658;50.920;12.238;2024-03-17T19:35:17;4.50;99.90
21001;DHT22;10658;50.920;12.238;2024-03-17T19:39:19;4.40;99.90
21001;DHT22;10658;50.920;12.238;2024-03-17T19:43:20;4.50;99.90
21001;DHT22;10658;50.920;12.238;2024-03-17T19:47:21;4.50;99.90
21001;DHT22;10658;50.920;12.238;2024-03-17T19:51:24;4.50;99.90
21001;DHT22;10658;50.920;12.238;2024-03-17T19:55:25;4.40;99.90
21001;DHT22;10658;50.920;12.238;2024-03-17T19:59:26;4.50;99.90
21001;DHT22;10658;50.920;12.238;2024-03-17T20:03:27;4.50;99.90
21001;DHT22;10658;50.920;12.238;2024-03-17T20:07:28;4.40;99.90
21001;DHT22;10658;50.920;12.238;2024-03-17T20:11:29;4.20;99.90
21001;DHT22;10658;50.920;12.238;2024-03-17T20:15:29;4.00;99.90
21001;DHT22;10658;50.920;12.238;2024-03-17T20:19:30;4.00;99.90
21001;DHT22;10658;50.920;12.238;2024-03-17T20:23:31;3.90;99.90
21001;DHT22;10658;50.920;12.238;2024-03-17T20:27:32;3.80;99.90
21001;DHT22;10658;50.920;12.238;2024-03-17T20:31:32;3.70;99.90
21001;DHT22;10658;50.920;12.238;2024-03-17T20:35:35;3.70;99.90
21001;DHT22;10658;50.920;12.238;2024-03-17T20:39:37;3.70;99.90
21001;DHT22;10658;50.920;12.238;2024-03-17T20:43:38;3.70;99.90
21001;DHT22;10658;50.920;12.238;2024-03-17T20:47:39;3.70;99.90
21001;DHT22;10658;50.920;12.238;2024-03-17T20:51:41;3.80;99.90
21001;DHT22;10658;50.920;12.238;2024-03-17T20:55:43;3.80;99.90
21001;DHT22;10658;50.920;12.238;2024-03-17T20:59:44;3.80;99.90
21001;DHT22;10658;50.920;12.238;2024-03-17T21:03:45;3.70;99.90
21001;DHT22;10658;50.920;12.238;2024-03-17T21:07:46;3.70;99.90
21001;DHT22;10658;50.920;12.238;2024-03-17T21:11:47;3.70;99.90
21001;DHT22;10658;50.920;12.238;2024-03-17T21:15:48;3.70;99.90
21001;DHT22;10658;50.920;12.238;2024-03-17T21:19:50;3.70;99.90
21001;DHT22;10658;50.920;12.238;2024-03-17T21:23:52;3.70;99.90
21001;DHT22;10658;50.920;12.238;2024-03-17T21:27:53;3.70;99.90
21001;DHT22;10658;50.920;12.238;2024-03-17T21:31:54;3.70;99.90
21001;DHT22;10658;50.920;12.238;2024-03-17T21:35:55;3.50;99.90
21001;DHT22;10658;50.920;12.238;2024-03-17T21:39:56;3.40;99.90
21001;DHT22;10658;50.920;12.238;2024-03-17T21:43:57;3.20;99.90
21001;DHT22;10658;50.920;12.238;2024-03-17T21:47:58;3.20;99.90
21001;DHT22;10658;50.920;12.238;2024-03-17T21:51:58;3.10;99.90
21001;DHT22;10658;50.920;12.238;2024-03-17T21:56:00;3.20;99.90
21001;DHT22;10658;50.920;12.238;2024-03-17T22:00:02;3.20;99.90
21001;DHT22;10658;50.920;12.238;2024-03-17T22:04:05;3.00;99.90
21001;DHT22;10658;50.920;12.238;2024-03-17T22:08:06;2.80;99.90
21001;DHT22;10658;50.920;12.238;2024-03-17T22:12:09;2.80;99.90
21001;DHT22;10658;50.920;12.238;2024-03-17T22:16:09;2.90;99.90
21001;DHT22;10658;50.920;12.238;2024-03-17T22:20:10;2.80;99.90
21001;DHT22;10658;50.920;12.238;2024-03-17T22:24:11;2.80;99.90
21001;DHT22;10658;50.920;12.238;2024-03-17T22:28:12;2.90;99.90
21001;DHT22;10658;50.920;12.238;2024-03-17T22:32:13;2.90;99.90
21001;DHT22;10658;50.920;12.238;2024-03-17T22:36:14;2.80;99.90
21001;DHT22;10658;50.920;12.238;2024-03-17T22:40:15;2.80;99.90
21001;DHT22;10658;50.920;12.238;2024-03-17T22:44:16;2.80;99.90
21001;DHT22;10658;50.920;12.238;2024-03-17T22:48:18;2.80;99.90
21001;DHT22;10658;50.920;12.238;2024-03-17T22:52:19;2.80;99.90
21001;DHT22;10658;50.920;12.238;2024-03-17T22:56:20;2.80;99.90
21001;DHT22;10658;50.920;12.238;2024-03-17T23:00:26;2.80;99.90
21001;DHT22;10658;50.920;12.238;2024-03-17T23:04:56;2.70;99.90
21001;DHT22;10658;50.920;12.238;2024-03-17T23:08:57;2.60;99.90
21001;DHT22;10658;50.920;12.238;2024-03-17T23:12:58;2.60;99.90
21001;DHT22;10658;50.920;12.238;2024-03-17T23:16:59;2.60;99.90
21001;DHT22;10658;50.920;12.238;2024-03-17T23:20:59;2.60;99.90
21001;DHT22;10658;50.920;12.238;2024-03-17T23:25:00;2.60;99.90
21001;DHT22;10658;50.920;12.238;2024-03-17T23:29:01;2.60;99.90
21001;DHT22;10658;50.920;12.238;2024-03-17T23:33:03;2.50;99.90
21001;DHT22;10658;50.920;12.238;2024-03-17T23:37:04;2.40;99.90
21001;DHT22;10658;50.920;12.238;2024-03-17T23:41:05;2.40;99.90
21001;DHT22;10658;50.920;12.238;2024-03-17T23:45:07;2.40;99.90
21001;DHT22;10658;50.920;12.238;2024-03-17T23:49:08;2.40;99.90
21001;DHT22;10658;50.920;12.238;2024-03-17T23:53:09;2.30;99.90
21001;DHT22;10658;50.920;12.238;2024-03-17T23:57:10;2.40;99.90
